createdAt,value
2019-05-20T00:00:04.954Z,90.50
2019-05-20T00:00:35.021Z,90.47
2019-05-20T00:01:06.263Z,90.44
2019-05-20T00:01:35.020Z,90.44
2019-05-20T00:02:35.024Z,90.46
2019-05-20T00:03:04.955Z,90.41
2019-05-20T00:03:35.017Z,90.45
2019-05-20T00:04:07.261Z,90.44
2019-05-20T00:04:35.010Z,90.48
2019-05-20T00:05:04.958Z,90.50
2019-05-20T00:05:35.021Z,90.51
2019-05-20T00:06:05.053Z,90.45
2019-05-20T00:06:35.022Z,90.44
2019-05-20T00:07:04.980Z,90.43
2019-05-20T00:07:35.022Z,90.49
2019-05-20T00:08:05.039Z,90.49
2019-05-20T00:08:35.020Z,90.48
2019-05-20T00:09:04.972Z,90.48
2019-05-20T00:09:35.022Z,90.46
2019-05-20T00:10:04.958Z,90.44
2019-05-20T00:10:35.032Z,90.45
2019-05-20T00:11:05.025Z,90.47
2019-05-20T00:11:36.321Z,90.52
2019-05-20T00:12:04.969Z,90.50
2019-05-20T00:13:04.963Z,90.48
2019-05-20T00:13:35.033Z,90.41
2019-05-20T00:14:04.967Z,90.41
2019-05-20T00:14:37.346Z,90.41
2019-05-20T00:15:04.963Z,90.46
2019-05-20T00:15:35.032Z,90.48
2019-05-20T00:16:04.975Z,90.41
2019-05-20T00:16:35.093Z,90.45
2019-05-20T00:17:04.964Z,90.50
2019-05-20T00:17:35.024Z,90.56
2019-05-20T00:18:04.964Z,90.63
2019-05-20T00:18:35.059Z,90.66
2019-05-20T00:19:04.971Z,90.64
2019-05-20T00:19:35.022Z,90.64
2019-05-20T00:20:04.961Z,90.62
2019-05-20T00:20:35.040Z,90.56
2019-05-20T00:21:04.960Z,90.55
2019-05-20T00:21:35.031Z,90.59
2019-05-20T00:22:06.169Z,90.51
2019-05-20T00:22:35.026Z,90.51
2019-05-20T00:23:04.964Z,90.57
2019-05-20T00:23:35.033Z,90.60
2019-05-20T00:24:04.968Z,90.60
2019-05-20T00:24:35.028Z,90.57
2019-05-20T00:25:07.313Z,90.59
2019-05-20T00:25:35.023Z,90.51
2019-05-20T00:26:04.969Z,90.35
2019-05-20T00:26:35.026Z,90.19
2019-05-20T00:27:04.967Z,90.14
2019-05-20T00:27:35.023Z,90.01
2019-05-20T00:28:04.974Z,90.12
2019-05-20T00:28:35.027Z,90.06
2019-05-20T00:29:05.032Z,90.10
2019-05-20T00:29:35.027Z,90.15
2019-05-20T00:30:04.974Z,90.22
2019-05-20T00:30:35.029Z,90.26
2019-05-20T00:31:05.080Z,90.33
2019-05-20T00:31:35.022Z,90.29
2019-05-20T00:32:04.970Z,90.29
2019-05-20T00:32:41.489Z,90.33
2019-05-20T00:33:05.031Z,90.42
2019-05-20T00:34:04.967Z,90.44
2019-05-20T00:34:36.044Z,90.36
2019-05-20T00:35:04.984Z,90.42
2019-05-20T00:35:37.314Z,90.40
2019-05-20T00:36:04.963Z,90.46
2019-05-20T00:37:04.977Z,90.59
2019-05-20T00:37:35.041Z,90.64
2019-05-20T00:38:04.970Z,90.68
2019-05-20T00:38:35.036Z,90.64
2019-05-20T00:39:04.976Z,90.68
2019-05-20T00:39:35.095Z,90.66
2019-05-20T00:40:04.971Z,90.69
2019-05-20T00:40:35.026Z,90.68
2019-05-20T00:41:04.967Z,90.69
2019-05-20T00:41:35.131Z,90.63
2019-05-20T00:42:04.975Z,90.62
2019-05-20T00:42:35.038Z,90.68
2019-05-20T00:43:06.230Z,90.71
2019-05-20T00:43:35.091Z,90.74
2019-05-20T00:44:04.985Z,90.64
2019-05-20T00:44:35.028Z,90.62
2019-05-20T00:45:04.976Z,90.59
2019-05-20T00:45:35.087Z,90.54
2019-05-20T00:46:07.456Z,90.49
2019-05-20T00:46:35.048Z,90.50
2019-05-20T00:47:04.969Z,90.43
2019-05-20T00:47:35.034Z,90.45
2019-05-20T00:48:04.973Z,90.53
2019-05-20T00:48:35.035Z,90.54
2019-05-20T00:49:04.967Z,90.34
2019-05-20T00:49:35.106Z,90.34
2019-05-20T00:50:04.971Z,90.41
2019-05-20T00:50:35.031Z,90.48
2019-05-20T00:51:04.968Z,90.46
2019-05-20T00:51:35.028Z,90.38
2019-05-20T00:52:04.975Z,90.39
2019-05-20T00:52:35.036Z,90.41
2019-05-20T00:53:04.973Z,90.43
2019-05-20T00:53:36.286Z,90.33
2019-05-20T00:54:04.979Z,90.28
2019-05-20T00:55:04.979Z,90.16
2019-05-20T00:55:35.032Z,90.11
2019-05-20T00:56:05.054Z,90.08
2019-05-20T00:56:37.374Z,90.16
2019-05-20T00:57:04.979Z,90.12
2019-05-20T00:57:35.039Z,90.11
2019-05-20T00:58:05.051Z,90.05
2019-05-20T00:58:35.036Z,90.03
2019-05-20T00:59:04.977Z,90.11
2019-05-20T00:59:35.036Z,90.10
2019-05-20T01:00:05.030Z,89.99
2019-05-20T01:00:35.036Z,90.00
2019-05-20T01:01:04.975Z,89.91
2019-05-20T01:01:35.031Z,89.80
2019-05-20T01:02:05.067Z,89.78
2019-05-20T01:02:35.035Z,89.75
2019-05-20T01:03:04.974Z,89.74
2019-05-20T01:03:35.043Z,89.69
2019-05-20T01:04:06.234Z,89.71
2019-05-20T01:04:35.050Z,89.70
2019-05-20T01:05:04.972Z,89.66
2019-05-20T01:05:35.038Z,89.77
2019-05-20T01:06:04.986Z,89.54
2019-05-20T01:06:35.142Z,89.19
2019-05-20T01:07:07.445Z,89.11
2019-05-20T01:07:35.041Z,89.17
2019-05-20T01:08:04.979Z,89.27
2019-05-20T01:08:35.181Z,89.31
2019-05-20T01:09:04.997Z,89.46
2019-05-20T01:09:35.031Z,89.59
2019-05-20T01:10:04.975Z,89.64
2019-05-20T01:10:35.086Z,89.49
2019-05-20T01:11:04.977Z,89.38
2019-05-20T01:11:35.034Z,89.23
2019-05-20T01:12:04.988Z,89.04
2019-05-20T01:12:35.044Z,89.16
2019-05-20T01:13:04.989Z,89.19
2019-05-20T01:13:35.036Z,89.08
2019-05-20T01:14:04.987Z,89.22
2019-05-20T01:14:36.232Z,88.97
2019-05-20T01:15:04.981Z,88.78
2019-05-20T01:16:04.995Z,89.09
2019-05-20T01:16:35.041Z,89.16
2019-05-20T01:17:04.985Z,89.15
2019-05-20T01:17:37.327Z,89.05
2019-05-20T01:18:04.975Z,88.97
2019-05-20T01:18:35.037Z,89.12
2019-05-20T01:19:04.977Z,89.24
2019-05-20T01:19:35.037Z,89.17
2019-05-20T01:20:04.985Z,89.13
2019-05-20T01:20:35.043Z,89.01
2019-05-20T01:21:04.987Z,88.64
2019-05-20T01:21:35.037Z,88.45
2019-05-20T01:22:04.975Z,88.69
2019-05-20T01:22:35.042Z,88.76
2019-05-20T01:23:05.124Z,88.78
2019-05-20T01:23:35.043Z,88.66
2019-05-20T01:24:04.980Z,88.37
2019-05-20T01:24:35.041Z,88.52
2019-05-20T01:25:06.207Z,88.76
2019-05-20T01:25:35.045Z,88.80
2019-05-20T01:26:04.989Z,88.86
2019-05-20T01:26:35.036Z,88.86
2019-05-20T01:27:05.001Z,88.68
2019-05-20T01:27:35.039Z,88.66
2019-05-20T01:28:07.427Z,88.76
2019-05-20T01:28:35.050Z,88.88
2019-05-20T01:29:04.991Z,88.98
2019-05-20T01:29:35.058Z,88.96
2019-05-20T01:30:04.990Z,88.86
2019-05-20T01:30:35.044Z,88.91
2019-05-20T01:31:04.981Z,88.95
2019-05-20T01:31:35.150Z,89.00
2019-05-20T01:32:04.984Z,88.98
2019-05-20T01:32:35.048Z,88.91
2019-05-20T01:33:13.580Z,88.96
2019-05-20T01:33:35.138Z,88.94
2019-05-20T01:34:04.988Z,89.01
2019-05-20T01:34:35.057Z,89.00
2019-05-20T01:35:04.979Z,88.99
2019-05-20T01:35:36.261Z,89.09
2019-05-20T01:36:04.982Z,89.11
2019-05-20T01:37:04.990Z,89.05
2019-05-20T01:37:35.056Z,89.09
2019-05-20T01:38:04.985Z,89.04
2019-05-20T01:38:37.279Z,88.96
2019-05-20T01:39:04.979Z,88.86
2019-05-20T01:39:35.049Z,88.86
2019-05-20T01:40:04.994Z,88.92
2019-05-20T01:40:35.047Z,89.09
2019-05-20T01:41:04.985Z,89.10
2019-05-20T01:41:35.039Z,89.16
2019-05-20T01:42:04.989Z,89.10
2019-05-20T01:42:35.045Z,89.07
2019-05-20T01:43:04.995Z,89.06
2019-05-20T01:43:35.055Z,89.09
2019-05-20T01:44:05.008Z,88.94
2019-05-20T01:44:35.048Z,88.91
2019-05-20T01:45:05.002Z,89.06
2019-05-20T01:45:35.045Z,89.14
2019-05-20T01:46:06.316Z,89.09
2019-05-20T01:46:35.041Z,89.12
2019-05-20T01:47:04.984Z,89.14
2019-05-20T01:47:35.090Z,89.21
2019-05-20T01:48:05.128Z,89.23
2019-05-20T01:48:35.048Z,89.26
2019-05-20T01:49:07.311Z,89.21
2019-05-20T01:49:35.066Z,89.06
2019-05-20T01:50:05.062Z,89.03
2019-05-20T01:50:35.049Z,89.00
2019-05-20T01:51:04.986Z,89.05
2019-05-20T01:51:36.101Z,89.07
2019-05-20T01:52:04.984Z,89.01
2019-05-20T01:52:35.053Z,89.01
2019-05-20T01:53:04.986Z,88.97
2019-05-20T01:53:35.042Z,89.06
2019-05-20T01:54:04.994Z,89.00
2019-05-20T01:54:35.046Z,89.00
2019-05-20T01:55:04.988Z,89.03
2019-05-20T01:55:35.053Z,88.90
2019-05-20T01:56:05.103Z,88.75
2019-05-20T01:56:36.167Z,88.81
2019-05-20T01:57:04.982Z,88.85
2019-05-20T01:58:04.994Z,88.69
2019-05-20T01:58:35.089Z,88.63
2019-05-20T01:59:05.001Z,88.62
2019-05-20T01:59:37.311Z,88.83
2019-05-20T02:00:04.995Z,88.86
2019-05-20T02:00:35.056Z,88.68
2019-05-20T02:01:04.991Z,88.49
2019-05-20T02:01:35.053Z,88.53
2019-05-20T02:02:04.991Z,88.56
2019-05-20T02:02:35.077Z,88.62
2019-05-20T02:03:04.992Z,88.75
2019-05-20T02:03:35.063Z,88.82
2019-05-20T02:04:04.994Z,88.87
2019-05-20T02:04:35.066Z,88.91
2019-05-20T02:05:05.004Z,88.92
2019-05-20T02:05:35.060Z,88.98
2019-05-20T02:06:04.993Z,89.01
2019-05-20T02:06:35.071Z,89.08
2019-05-20T02:07:06.238Z,89.13
2019-05-20T02:07:35.090Z,89.26
2019-05-20T02:08:04.994Z,89.10
2019-05-20T02:08:35.059Z,89.07
2019-05-20T02:09:04.988Z,89.06
2019-05-20T02:09:35.052Z,89.08
2019-05-20T02:10:07.273Z,89.12
2019-05-20T02:10:36.400Z,88.90
2019-05-20T02:11:05.237Z,88.69
2019-05-20T02:11:36.074Z,88.81
2019-05-20T02:12:05.023Z,88.94
2019-05-20T02:12:35.053Z,88.95
2019-05-20T02:13:05.119Z,89.03
2019-05-20T02:13:35.358Z,89.03
2019-05-20T02:14:05.086Z,89.00
2019-05-20T02:14:35.050Z,88.91
2019-05-20T02:15:05.084Z,89.02
2019-05-20T02:15:35.068Z,88.96
2019-05-20T02:16:04.992Z,88.86
2019-05-20T02:16:35.057Z,88.85
2019-05-20T02:17:05.033Z,88.94
2019-05-20T02:17:36.258Z,88.98
2019-05-20T02:18:04.995Z,88.93
2019-05-20T02:18:38.444Z,88.91
2019-05-20T02:19:04.994Z,88.97
2019-05-20T02:19:35.051Z,88.95
2019-05-20T02:20:05.001Z,88.81
2019-05-20T02:20:37.265Z,88.81
2019-05-20T02:21:04.997Z,88.97
2019-05-20T02:21:35.214Z,89.05
2019-05-20T02:22:04.993Z,89.03
2019-05-20T02:22:35.078Z,88.92
2019-05-20T02:23:04.991Z,88.88
2019-05-20T02:23:35.130Z,88.90
2019-05-20T02:24:04.994Z,88.92
2019-05-20T02:24:35.066Z,88.97
2019-05-20T02:25:05.053Z,88.85
2019-05-20T02:25:35.130Z,88.71
2019-05-20T02:26:04.996Z,88.76
2019-05-20T02:26:35.061Z,88.88
2019-05-20T02:27:05.061Z,89.03
2019-05-20T02:27:35.088Z,89.09
2019-05-20T02:28:06.314Z,89.21
2019-05-20T02:28:35.055Z,89.13
2019-05-20T02:29:05.003Z,89.03
2019-05-20T02:29:35.102Z,89.04
2019-05-20T02:30:05.005Z,88.94
2019-05-20T02:30:35.062Z,88.90
2019-05-20T02:31:07.292Z,88.88
2019-05-20T02:31:35.089Z,88.90
2019-05-20T02:32:05.016Z,88.90
2019-05-20T02:32:35.053Z,88.90
2019-05-20T02:33:05.007Z,88.97
2019-05-20T02:33:50.528Z,89.03
2019-05-20T02:34:05.001Z,89.14
2019-05-20T02:34:35.060Z,89.15
2019-05-20T02:35:05.003Z,89.18
2019-05-20T02:35:35.066Z,88.93
2019-05-20T02:36:05.231Z,88.91
2019-05-20T02:36:35.064Z,88.98
2019-05-20T02:37:04.997Z,89.06
2019-05-20T02:37:35.062Z,89.20
2019-05-20T02:38:05.001Z,89.33
2019-05-20T02:38:36.189Z,89.38
2019-05-20T02:39:04.993Z,89.30
2019-05-20T02:39:38.080Z,89.23
2019-05-20T02:40:05.030Z,89.22
2019-05-20T02:40:35.057Z,89.28
2019-05-20T02:41:05.000Z,89.34
2019-05-20T02:41:37.268Z,89.32
2019-05-20T02:42:05.108Z,89.22
2019-05-20T02:42:35.057Z,89.23
2019-05-20T02:43:05.005Z,89.25
2019-05-20T02:43:35.064Z,89.36
2019-05-20T02:44:05.051Z,89.50
2019-05-20T02:44:35.053Z,89.52
2019-05-20T02:45:05.006Z,89.61
2019-05-20T02:45:35.063Z,89.64
2019-05-20T02:46:05.016Z,89.75
2019-05-20T02:46:35.065Z,89.81
2019-05-20T02:47:05.014Z,89.82
2019-05-20T02:47:35.068Z,89.91
2019-05-20T02:48:04.997Z,89.78
2019-05-20T02:48:35.190Z,89.80
2019-05-20T02:49:06.188Z,89.75
2019-05-20T02:49:35.064Z,89.74
2019-05-20T02:50:05.013Z,89.73
2019-05-20T02:50:35.070Z,89.80
2019-05-20T02:51:05.011Z,89.81
2019-05-20T02:51:35.064Z,89.87
2019-05-20T02:52:07.280Z,89.93
2019-05-20T02:52:35.138Z,89.92
2019-05-20T02:53:05.001Z,89.66
2019-05-20T02:53:35.062Z,89.59
2019-05-20T02:54:05.008Z,89.62
2019-05-20T02:54:35.070Z,89.75
2019-05-20T02:55:05.019Z,89.70
2019-05-20T02:55:35.448Z,89.59
2019-05-20T02:56:06.028Z,89.59
2019-05-20T02:56:35.071Z,89.61
2019-05-20T02:57:05.014Z,89.62
2019-05-20T02:57:35.072Z,89.64
2019-05-20T02:58:05.004Z,89.65
2019-05-20T02:58:35.064Z,89.69
2019-05-20T02:59:05.020Z,89.59
2019-05-20T02:59:36.278Z,89.54
2019-05-20T03:00:05.013Z,89.53
2019-05-20T03:00:38.106Z,89.47
2019-05-20T03:01:05.016Z,89.53
2019-05-20T03:01:35.066Z,89.55
2019-05-20T03:02:05.019Z,89.65
2019-05-20T03:02:37.285Z,89.73
2019-05-20T03:03:05.116Z,89.80
2019-05-20T03:03:35.075Z,89.80
2019-05-20T03:04:11.886Z,89.70
2019-05-20T03:04:35.075Z,89.67
2019-05-20T03:05:05.086Z,89.73
2019-05-20T03:05:35.068Z,89.76
2019-05-20T03:06:05.018Z,89.69
2019-05-20T03:06:35.075Z,89.61
2019-05-20T03:07:05.114Z,89.60
2019-05-20T03:07:35.067Z,89.58
2019-05-20T03:08:05.009Z,89.58
2019-05-20T03:08:35.070Z,89.60
2019-05-20T03:09:05.066Z,89.66
2019-05-20T03:09:35.091Z,89.72
2019-05-20T03:10:06.288Z,89.77
2019-05-20T03:10:35.067Z,89.88
2019-05-20T03:11:35.076Z,90.00
2019-05-20T03:12:05.007Z,90.07
2019-05-20T03:12:35.072Z,90.19
2019-05-20T03:13:07.231Z,90.26
2019-05-20T03:13:35.167Z,90.20
2019-05-20T03:14:05.023Z,90.21
2019-05-20T03:14:35.073Z,90.24
2019-05-20T03:15:05.013Z,90.34
2019-05-20T03:15:35.088Z,90.38
2019-05-20T03:16:05.015Z,90.43
2019-05-20T03:16:35.071Z,90.44
2019-05-20T03:17:05.015Z,90.39
2019-05-20T03:17:35.171Z,90.37
2019-05-20T03:18:05.015Z,90.41
2019-05-20T03:18:35.078Z,90.40
2019-05-20T03:19:05.020Z,90.36
2019-05-20T03:19:35.089Z,90.42
2019-05-20T03:20:05.033Z,90.33
2019-05-20T03:20:36.202Z,90.35
2019-05-20T03:21:05.011Z,90.41
2019-05-20T03:21:38.116Z,90.51
2019-05-20T03:22:05.015Z,90.57
2019-05-20T03:22:35.078Z,90.54
2019-05-20T03:23:05.006Z,90.51
2019-05-20T03:23:37.327Z,90.46
2019-05-20T03:24:05.036Z,90.41
2019-05-20T03:24:35.067Z,90.51
2019-05-20T03:25:05.016Z,90.61
2019-05-20T03:25:35.077Z,90.70
2019-05-20T03:26:05.021Z,90.75
2019-05-20T03:26:35.076Z,90.82
2019-05-20T03:27:05.015Z,90.88
2019-05-20T03:27:35.083Z,90.91
2019-05-20T03:28:05.013Z,90.93
2019-05-20T03:28:35.071Z,90.89
2019-05-20T03:29:05.034Z,90.92
2019-05-20T03:29:35.075Z,90.92
2019-05-20T03:30:05.023Z,90.90
2019-05-20T03:30:35.072Z,90.95
2019-05-20T03:31:06.317Z,90.99
2019-05-20T03:31:35.076Z,90.99
2019-05-20T03:32:35.075Z,91.02
2019-05-20T03:33:05.033Z,91.02
2019-05-20T03:33:35.079Z,91.05
2019-05-20T03:34:07.257Z,91.06
2019-05-20T03:34:46.319Z,91.08
2019-05-20T03:35:05.049Z,90.96
2019-05-20T03:35:36.136Z,90.98
2019-05-20T03:36:05.132Z,90.95
2019-05-20T03:36:35.069Z,90.98
2019-05-20T03:37:05.017Z,91.01
2019-05-20T03:37:35.073Z,91.01
2019-05-20T03:38:05.013Z,91.00
2019-05-20T03:38:35.207Z,90.97
2019-05-20T03:39:05.059Z,91.00
2019-05-20T03:39:35.075Z,91.04
2019-05-20T03:40:05.015Z,91.07
2019-05-20T03:40:35.076Z,91.12
2019-05-20T03:41:05.018Z,91.14
2019-05-20T03:41:36.214Z,91.24
2019-05-20T03:42:05.022Z,91.26
2019-05-20T03:42:38.134Z,91.26
2019-05-20T03:43:05.015Z,91.30
2019-05-20T03:43:35.086Z,91.27
2019-05-20T03:44:05.029Z,91.25
2019-05-20T03:44:37.295Z,91.27
2019-05-20T03:45:05.018Z,91.29
2019-05-20T03:45:35.080Z,91.34
2019-05-20T03:46:05.024Z,91.39
2019-05-20T03:46:35.094Z,91.40
2019-05-20T03:47:05.021Z,91.41
2019-05-20T03:47:35.083Z,91.38
2019-05-20T03:48:05.018Z,91.38
2019-05-20T03:48:35.115Z,91.35
2019-05-20T03:49:05.022Z,91.39
2019-05-20T03:49:35.077Z,91.41
2019-05-20T03:50:05.022Z,91.39
2019-05-20T03:50:35.084Z,91.40
2019-05-20T03:51:05.024Z,91.39
2019-05-20T03:51:35.086Z,91.45
2019-05-20T03:52:06.403Z,91.49
2019-05-20T03:52:35.077Z,91.56
2019-05-20T03:53:05.021Z,91.55
2019-05-20T03:53:35.086Z,91.57
2019-05-20T03:54:05.014Z,91.58
2019-05-20T03:54:35.080Z,91.49
2019-05-20T03:55:07.312Z,91.45
2019-05-20T03:55:35.080Z,91.42
2019-05-20T03:56:05.016Z,91.42
2019-05-20T03:56:35.086Z,91.40
2019-05-20T03:57:05.024Z,91.36
2019-05-20T03:57:35.081Z,91.27
2019-05-20T03:58:05.021Z,91.35
2019-05-20T03:58:35.087Z,91.31
2019-05-20T03:59:05.087Z,91.33
2019-05-20T03:59:35.081Z,91.36
2019-05-20T04:00:05.035Z,91.33
2019-05-20T04:00:35.085Z,91.36
2019-05-20T04:01:05.060Z,91.47
2019-05-20T04:01:35.093Z,91.42
2019-05-20T04:02:05.026Z,91.48
2019-05-20T04:02:36.393Z,91.55
2019-05-20T04:03:05.117Z,91.61
2019-05-20T04:03:38.403Z,91.60
2019-05-20T04:04:05.031Z,91.65
2019-05-20T04:04:35.082Z,91.70
2019-05-20T04:05:05.023Z,91.71
2019-05-20T04:05:37.329Z,91.76
2019-05-20T04:06:05.025Z,91.73
2019-05-20T04:06:35.091Z,91.75
2019-05-20T04:07:05.031Z,91.72
2019-05-20T04:07:35.145Z,91.66
2019-05-20T04:08:05.036Z,91.70
2019-05-20T04:08:35.089Z,91.77
2019-05-20T04:09:05.023Z,91.82
2019-05-20T04:09:35.116Z,91.84
2019-05-20T04:10:05.091Z,91.88
2019-05-20T04:10:35.129Z,91.99
2019-05-20T04:11:05.027Z,92.02
2019-05-20T04:11:35.183Z,92.07
2019-05-20T04:12:05.021Z,92.11
2019-05-20T04:12:35.085Z,92.14
2019-05-20T04:13:06.198Z,92.17
2019-05-20T04:13:36.104Z,92.23
2019-05-20T04:14:05.031Z,92.21
2019-05-20T04:14:35.091Z,92.21
2019-05-20T04:15:05.065Z,92.16
2019-05-20T04:15:35.088Z,92.23
2019-05-20T04:16:07.408Z,92.23
2019-05-20T04:16:35.084Z,92.34
2019-05-20T04:17:05.030Z,92.37
2019-05-20T04:17:35.090Z,92.32
2019-05-20T04:18:05.033Z,92.30
2019-05-20T04:18:35.085Z,92.34
2019-05-20T04:19:05.037Z,92.35
2019-05-20T04:19:35.100Z,92.31
2019-05-20T04:20:05.028Z,92.32
2019-05-20T04:20:35.080Z,92.38
2019-05-20T04:21:05.027Z,92.35
2019-05-20T04:21:35.087Z,92.34
2019-05-20T04:22:06.074Z,92.34
2019-05-20T04:22:35.081Z,92.35
2019-05-20T04:23:05.053Z,92.31
2019-05-20T04:23:36.412Z,92.25
2019-05-20T04:24:05.644Z,92.35
2019-05-20T04:24:38.123Z,92.37
2019-05-20T04:25:05.037Z,92.35
2019-05-20T04:25:35.089Z,92.38
2019-05-20T04:26:05.113Z,92.42
2019-05-20T04:26:37.416Z,92.45
2019-05-20T04:27:05.033Z,92.48
2019-05-20T04:27:35.097Z,92.46
2019-05-20T04:28:05.065Z,92.52
2019-05-20T04:28:35.084Z,92.51
2019-05-20T04:29:05.026Z,92.52
2019-05-20T04:29:35.091Z,92.52
2019-05-20T04:30:05.085Z,92.53
2019-05-20T04:30:35.081Z,92.46
2019-05-20T04:31:05.039Z,92.42
2019-05-20T04:31:35.085Z,92.40
2019-05-20T04:32:05.036Z,92.29
2019-05-20T04:32:35.150Z,92.24
2019-05-20T04:33:05.060Z,92.22
2019-05-20T04:33:35.095Z,92.23
2019-05-20T04:34:06.213Z,92.19
2019-05-20T04:34:35.203Z,92.20
2019-05-20T04:35:21.853Z,92.22
2019-05-20T04:35:35.084Z,92.23
2019-05-20T04:36:05.035Z,92.21
2019-05-20T04:36:35.179Z,92.24
2019-05-20T04:37:07.421Z,92.19
2019-05-20T04:37:35.093Z,92.21
2019-05-20T04:38:05.036Z,92.18
2019-05-20T04:38:35.092Z,92.17
2019-05-20T04:39:05.029Z,92.14
2019-05-20T04:39:35.143Z,92.14
2019-05-20T04:40:05.037Z,92.14
2019-05-20T04:40:35.088Z,92.10
2019-05-20T04:41:05.027Z,92.03
2019-05-20T04:41:36.149Z,92.05
2019-05-20T04:42:07.329Z,92.04
2019-05-20T04:42:35.130Z,91.96
2019-05-20T04:43:05.027Z,91.92
2019-05-20T04:43:35.087Z,91.90
2019-05-20T04:44:05.030Z,91.91
2019-05-20T04:44:36.286Z,91.89
2019-05-20T04:45:05.030Z,91.82
2019-05-20T04:45:38.136Z,91.83
2019-05-20T04:46:05.039Z,91.83
2019-05-20T04:46:35.099Z,91.79
2019-05-20T04:47:05.052Z,91.73
2019-05-20T04:47:37.265Z,91.78
2019-05-20T04:48:05.039Z,91.84
2019-05-20T04:48:35.128Z,91.89
2019-05-20T04:49:05.063Z,91.93
2019-05-20T04:49:35.097Z,91.93
2019-05-20T04:50:05.039Z,91.94
2019-05-20T04:50:35.094Z,91.94
2019-05-20T04:51:05.095Z,91.94
2019-05-20T04:51:35.089Z,91.91
2019-05-20T04:52:05.035Z,91.92
2019-05-20T04:52:35.097Z,91.85
2019-05-20T04:53:05.070Z,91.82
2019-05-20T04:53:35.090Z,91.75
2019-05-20T04:54:05.037Z,91.71
2019-05-20T04:54:35.089Z,91.69
2019-05-20T04:55:06.246Z,91.73
2019-05-20T04:55:35.098Z,91.75
2019-05-20T04:56:35.091Z,91.70
2019-05-20T04:57:05.036Z,91.78
2019-05-20T04:57:35.112Z,91.76
2019-05-20T04:58:07.424Z,91.76
2019-05-20T04:58:35.098Z,91.78
2019-05-20T04:59:05.035Z,91.80
2019-05-20T04:59:35.095Z,91.80
2019-05-20T05:00:05.042Z,91.85
2019-05-20T05:00:35.104Z,91.85
2019-05-20T05:01:05.037Z,91.88
2019-05-20T05:01:35.151Z,91.80
2019-05-20T05:02:05.047Z,91.73
2019-05-20T05:02:35.092Z,91.72
2019-05-20T05:03:05.036Z,91.76
2019-05-20T05:03:35.139Z,91.76
2019-05-20T05:04:05.042Z,91.78
2019-05-20T05:04:35.088Z,91.79
2019-05-20T05:05:05.035Z,91.80
2019-05-20T05:05:39.236Z,91.74
2019-05-20T05:06:05.036Z,91.82
2019-05-20T05:06:38.168Z,91.84
2019-05-20T05:07:05.039Z,91.85
2019-05-20T05:07:35.107Z,91.83
2019-05-20T05:08:05.037Z,91.75
2019-05-20T05:08:37.469Z,91.76
2019-05-20T05:09:05.041Z,91.71
2019-05-20T05:09:35.097Z,91.69
2019-05-20T05:10:05.043Z,91.76
2019-05-20T05:10:35.103Z,91.75
2019-05-20T05:11:05.039Z,91.79
2019-05-20T05:11:35.106Z,91.79
2019-05-20T05:12:05.046Z,91.83
2019-05-20T05:12:35.095Z,91.85
2019-05-20T05:13:05.045Z,91.92
2019-05-20T05:13:35.091Z,91.95
2019-05-20T05:14:05.201Z,91.95
2019-05-20T05:14:35.095Z,92.01
2019-05-20T05:15:07.965Z,91.96
2019-05-20T05:15:35.100Z,91.94
2019-05-20T05:16:06.384Z,91.93
2019-05-20T05:16:35.106Z,91.89
2019-05-20T05:17:35.106Z,91.81
2019-05-20T05:18:05.131Z,91.83
2019-05-20T05:18:35.099Z,91.85
2019-05-20T05:19:07.353Z,91.88
2019-05-20T05:19:35.101Z,91.80
2019-05-20T05:20:05.116Z,91.88
2019-05-20T05:20:35.103Z,91.87
2019-05-20T05:21:05.043Z,91.81
2019-05-20T05:21:35.101Z,91.82
2019-05-20T05:22:05.047Z,91.81
2019-05-20T05:22:35.107Z,91.88
2019-05-20T05:23:05.045Z,91.96
2019-05-20T05:23:35.112Z,91.92
2019-05-20T05:24:05.043Z,91.79
2019-05-20T05:24:35.215Z,91.79
2019-05-20T05:25:05.033Z,91.82
2019-05-20T05:25:35.129Z,91.96
2019-05-20T05:26:05.044Z,91.91
2019-05-20T05:26:36.365Z,91.93
2019-05-20T05:27:05.044Z,92.01
2019-05-20T05:27:38.139Z,92.03
2019-05-20T05:28:05.045Z,91.95
2019-05-20T05:28:35.135Z,91.93
2019-05-20T05:29:05.047Z,92.02
2019-05-20T05:29:37.338Z,92.08
2019-05-20T05:30:05.038Z,92.15
2019-05-20T05:30:35.149Z,92.23
2019-05-20T05:31:05.055Z,92.29
2019-05-20T05:31:35.110Z,92.27
2019-05-20T05:32:05.051Z,92.25
2019-05-20T05:32:35.104Z,92.21
2019-05-20T05:33:05.080Z,92.25
2019-05-20T05:33:35.101Z,92.33
2019-05-20T05:34:05.053Z,92.34
2019-05-20T05:34:35.120Z,92.39
2019-05-20T05:35:05.050Z,92.41
2019-05-20T05:35:35.107Z,92.50
2019-05-20T05:36:05.051Z,92.49
2019-05-20T05:36:35.103Z,92.55
2019-05-20T05:37:06.398Z,92.57
2019-05-20T05:37:35.105Z,92.53
2019-05-20T05:38:08.605Z,92.60
2019-05-20T05:38:35.109Z,92.56
2019-05-20T05:39:05.135Z,92.57
2019-05-20T05:39:35.104Z,92.56
2019-05-20T05:40:08.484Z,92.58
2019-05-20T05:40:35.115Z,92.60
2019-05-20T05:41:05.128Z,92.63
2019-05-20T05:41:35.112Z,92.61
2019-05-20T05:42:05.058Z,92.61
2019-05-20T05:42:35.116Z,92.67
2019-05-20T05:43:05.130Z,92.66
2019-05-20T05:43:35.108Z,92.67
2019-05-20T05:44:05.049Z,92.65
2019-05-20T05:44:35.102Z,92.68
2019-05-20T05:45:05.119Z,92.65
2019-05-20T05:45:35.111Z,92.67
2019-05-20T05:46:05.052Z,92.60
2019-05-20T05:46:36.138Z,92.46
2019-05-20T05:47:05.054Z,92.46
2019-05-20T05:47:36.291Z,92.39
2019-05-20T05:48:05.056Z,92.41
2019-05-20T05:48:38.136Z,92.45
2019-05-20T05:49:05.053Z,92.43
2019-05-20T05:49:35.180Z,92.40
2019-05-20T05:50:05.070Z,92.42
2019-05-20T05:50:37.339Z,92.39
2019-05-20T05:51:05.139Z,92.32
2019-05-20T05:51:35.168Z,92.35
2019-05-20T05:52:05.073Z,92.38
2019-05-20T05:52:35.114Z,92.36
2019-05-20T05:53:05.044Z,92.37
2019-05-20T05:53:35.180Z,92.36
2019-05-20T05:54:05.047Z,92.35
2019-05-20T05:54:35.109Z,92.33
2019-05-20T05:55:05.044Z,92.26
2019-05-20T05:55:35.116Z,92.23
2019-05-20T05:56:05.051Z,92.22
2019-05-20T05:56:35.121Z,92.20
2019-05-20T05:57:05.050Z,92.24
2019-05-20T05:57:35.120Z,92.21
2019-05-20T05:58:09.378Z,92.26
2019-05-20T05:58:35.105Z,92.28
2019-05-20T05:59:35.120Z,92.37
2019-05-20T06:00:05.048Z,92.30
2019-05-20T06:00:35.108Z,92.34
2019-05-20T06:01:07.435Z,92.30
2019-05-20T06:01:35.120Z,92.23
2019-05-20T06:02:05.054Z,92.15
2019-05-20T06:02:35.118Z,92.15
2019-05-20T06:03:05.049Z,92.14
2019-05-20T06:03:35.114Z,92.29
2019-05-20T06:04:05.060Z,92.35
2019-05-20T06:04:35.116Z,92.39
2019-05-20T06:05:05.058Z,92.41
2019-05-20T06:05:35.114Z,92.43
2019-05-20T06:06:12.457Z,92.48
2019-05-20T06:06:35.112Z,92.53
2019-05-20T06:07:05.053Z,92.57
2019-05-20T06:07:35.118Z,92.62
2019-05-20T06:08:05.050Z,92.69
2019-05-20T06:08:36.321Z,92.70
2019-05-20T06:09:05.058Z,92.72
2019-05-20T06:09:38.170Z,92.72
2019-05-20T06:10:05.106Z,92.77
2019-05-20T06:10:36.221Z,92.74
2019-05-20T06:11:05.054Z,92.73
2019-05-20T06:11:37.316Z,92.73
2019-05-20T06:12:05.087Z,92.72
2019-05-20T06:12:35.122Z,92.74
2019-05-20T06:13:06.079Z,92.79
2019-05-20T06:13:35.127Z,92.79
2019-05-20T06:14:05.076Z,92.77
2019-05-20T06:14:35.188Z,92.67
2019-05-20T06:15:05.054Z,92.57
2019-05-20T06:15:35.113Z,92.50
2019-05-20T06:16:05.070Z,92.39
2019-05-20T06:16:37.362Z,92.34
2019-05-20T06:17:05.057Z,92.42
2019-05-20T06:17:35.125Z,92.35
2019-05-20T06:18:05.063Z,92.30
2019-05-20T06:18:35.206Z,92.23
2019-05-20T06:19:05.069Z,92.16
2019-05-20T06:19:35.121Z,92.14
2019-05-20T06:20:08.297Z,92.16
2019-05-20T06:20:35.181Z,92.15
2019-05-20T06:21:05.067Z,92.05
2019-05-20T06:21:35.119Z,92.01
2019-05-20T06:22:07.381Z,92.08
2019-05-20T06:22:35.146Z,92.17
2019-05-20T06:23:05.062Z,92.05
2019-05-20T06:23:35.111Z,92.12
2019-05-20T06:24:05.059Z,92.08
2019-05-20T06:24:35.116Z,92.07
2019-05-20T06:25:05.079Z,92.10
2019-05-20T06:25:35.123Z,92.07
2019-05-20T06:26:05.163Z,92.03
2019-05-20T06:26:35.118Z,92.07
2019-05-20T06:27:05.058Z,92.03
2019-05-20T06:27:35.123Z,91.98
2019-05-20T06:28:05.064Z,91.97
2019-05-20T06:28:35.115Z,91.91
2019-05-20T06:29:05.064Z,91.86
2019-05-20T06:29:35.116Z,91.92
2019-05-20T06:30:05.060Z,91.93
2019-05-20T06:30:38.402Z,92.06
2019-05-20T06:31:05.062Z,92.11
2019-05-20T06:31:35.127Z,92.12
2019-05-20T06:32:05.072Z,92.03
2019-05-20T06:32:36.235Z,91.94